Latest Coastal Weather Observations for Willis Island

IDQ60701

Issued at 3:35 am EST Saturday 1 November 2014 (issued every 10 minutes, with the page automatically refreshed every 10 minutes)

About coastal observations | Map of coastal stations | Coastal observations for QLD | Marine services | Other Formats
Station Details ID: 200283 Name: WILLIS ISLAND Lat: -16.29 Lon: 149.97 Height: 9.29 m
Data from the previous 72 hours. | See also: Recent months at Willis Island
Date/Time
EST
Temp

°C
Wind Pressure Rain
since 9am
mm
Weather Cloud Vis
km
Sea
Height
m
Swell
Dir
 
Speed
knots
Gust
knots
hPa Trend Height
m
Period
s
Dir
01/03:30am 25.5 E 14 16 1012.0 - 0.0 - - - - - - -
01/03:00am 25.3 ESE 13 15 1011.8 - 0.0 - - - - - - -
01/02:30am 25.3 ESE 14 16 1011.7 - 0.0 - - - - - - -
01/02:00am 25.5 ESE 14 17 1011.8 - 0.0 - - - - - - -
01/01:30am 25.4 E 15 17 1012.1 - 0.0 - - - - - - -
01/01:00am 25.4 E 15 18 1012.4 - 0.0 - - - - - - -
01/12:30am 25.5 E 16 18 1012.4 - 0.0 - - - - - - -
01/12:00am 25.4 E 16 19 1012.7 - 0.0 - - - - - - -
 
Date/Time
EST
Temp

°C
Wind Pressure Rain
since 9am
mm
Weather Cloud Vis
km
Sea
Height
m
Swell
Dir
 
Speed
knots
Gust
knots
hPa Trend Height
m
Period
s
Dir
31/11:30pm 25.5 E 16 18 1013.0 - 0.0 - - - - - - -
31/11:00pm 25.5 ESE 14 16 1013.4 - 0.0 - - - - - - -
31/10:30pm 25.4 ESE 14 16 1013.7 - 0.0 - - - - - - -
31/10:00pm 25.3 ESE 14 16 1013.8 - 0.0 - - - - - - -
31/09:30pm 25.2 ESE 16 19 1013.9 - 0.0 - - - - - - -
31/09:00pm 25.6 ESE 15 17 1013.6 F 0.0 Fine Partly cloudy 30 1 - - -
31/08:30pm 25.6 ESE 16 18 1013.5 - 0.0 - - - - - - -
31/08:00pm 25.6 ESE 16 18 1013.2 - 0.0 - - - - - - -
31/07:30pm 25.5 ESE 15 18 1013.0 - 0.0 - - - - - - -
31/07:00pm 25.5 ESE 16 19 1012.7 - 0.0 - - - - - - -
31/06:30pm 25.6 ESE 16 19 1012.5 - 0.0 - - - - - - -
31/06:00pm 25.5 ESE 18 21 1012.1 F 0.0 Fine Mostly cloudy 30 2 1.0 8 SE
31/05:30pm 25.9 ESE 17 20 1011.7 - 0.0 - - - - - - -
31/05:00pm 25.9 ESE 17 20 1011.4 - 0.0 - - - - - - -
31/04:30pm 26.3 ESE 17 20 1011.3 - 0.0 - - - - - - -
31/04:00pm 26.8 ESE 17 19 1011.2 - 0.0 - - - - - - -
31/03:30pm 26.9 ESE 17 19 1011.3 - 0.0 - - - - - - -
31/03:00pm 27.0 ESE 16 18 1011.5 R 0.0 Fine Partly cloudy 30 2 1.0 7 SE
31/02:30pm 27.1 ESE 17 19 1011.6 - 0.0 - - - - - - -
31/02:00pm 27.9 ESE 16 19 1011.7 - 0.0 - - - - - - -
31/01:30pm 28.1 ESE 17 19 1012.0 - 0.0 - - - - - - -
31/01:00pm 28.4 ESE 16 18 1012.3 - 0.0 - - - - - - -
31/12:30pm 28.0 E 16 18 1012.7 - 0.0 - - - - - - -
31/12:00pm 27.9 E 16 19 1013.0 R 0.0 Fine Partly cloudy 30 1 1.0 7 SE
31/11:30am 28.0 E 17 19 1013.3 - 0.0 - - - - - - -
31/11:00am 28.3 E 16 18 1013.7 - 0.0 - - - - - - -
31/10:30am 28.0 E 16 18 1013.7 - 0.0 - - - - - - -
31/10:00am 27.8 E 17 19 1013.9 - 0.0 - - - - - - -
31/09:30am 27.3 E 15 18 1013.9 - 0.0 - - - - - - -
31/09:00am 27.1 E 16 18 1013.9 F 0.0 Fine Partly cloudy 30 1 1.0 7 SE
31/08:30am 27.0 E 16 17 1013.9 - 0.0 - - - - - - -
31/08:00am 26.6 E 17 19 1013.6 - 0.0 - - - - - - -
31/07:30am 26.3 E 16 18 1013.6 - 0.0 - - - - - - -
31/07:00am 26.0 E 15 17 1013.5 - 0.0 - - - - - - -
31/06:30am 25.8 E 15 17 1013.1 - 0.0 - - - - - - -
31/06:00am 25.3 ESE 15 18 1012.9 R 0.0 Fine Partly cloudy 30 1 1.0 7 SE
31/05:30am 25.0 ESE 15 17 1012.6 - 0.0 - - - - - - -
31/05:00am 25.1 E 16 18 1012.3 - 0.0 - - - - - - -
31/04:30am 25.1 E 16 18 1011.9 - 0.0 - - - - - - -
31/04:00am 25.2 E 16 19 1011.8 - 0.0 - - - - - - -
31/03:30am 25.2 E 16 19 1011.4 - 0.0 - - - - - - -
31/03:00am 25.3 E 15 18 1011.1 - 0.0 - - - - - - -
31/02:30am 25.1 E 16 17 1011.2 - 0.0 - - - - - - -
31/02:00am 25.2 E 17 20 1011.2 - 0.0 - - - - - - -
31/01:30am 25.2 E 17 19 1011.4 - 0.0 - - - - - - -
31/01:00am 25.3 E 17 20 1011.7 - 0.0 - - - - - - -
31/12:30am 25.2 E 13 15 1012.2 - 0.0 - - - - - - -
31/12:00am 25.0 E 17 19 1012.4 - 0.0 - - - - - - -
 
Date/Time
EST
Temp

°C
Wind Pressure Rain
since 9am
mm
Weather Cloud Vis
km
Sea
Height
m
Swell
Dir
 
Speed
knots
Gust
knots
hPa Trend Height
m
Period
s
Dir
30/11:30pm 25.3 E 15 17 1012.8 - 0.0 - - - - - - -
30/11:00pm 25.3 E 15 18 1013.0 - 0.0 - - - - - - -
30/10:30pm 25.4 E 16 19 1013.3 - 0.0 - - - - - - -
30/10:00pm 25.5 E 17 20 1013.3 - 0.0 - - - - - - -
30/09:30pm 25.6 E 17 19 1013.1 - 0.0 - - - - - - -
30/09:00pm 25.4 ESE 13 14 1013.1 F 0.0 Fine Partly cloudy 30 1 - - -
30/08:30pm 25.4 ESE 16 18 1012.9 - 0.0 - - - - - - -
30/08:00pm 25.4 ESE 16 18 1012.7 - 0.0 - - - - - - -
30/07:30pm 25.5 SE 14 16 1012.8 - 0.0 - - - - - - -
30/07:00pm 25.5 ESE 14 16 1012.6 - 0.0 - - - - - - -
30/06:30pm 25.3 ESE 15 17 1012.3 - 0.0 - - - - - - -
30/06:00pm 25.4 ESE 15 17 1012.0 S 0.0 Fine Mostly clear 30 1 1.0 6 E
30/05:30pm 25.7 ESE 15 17 1011.7 - 0.0 - - - - - - -
30/05:00pm 26.0 SE 15 17 1011.6 - 0.0 - - - - - - -
30/04:30pm 26.4 SE 16 19 1011.4 - 0.0 - - - - - - -
30/04:00pm 26.8 ESE 16 18 1011.0 - 0.0 - - - - - - -
30/03:30pm 27.1 SE 15 17 1011.2 - 0.0 - - - - - - -
30/03:00pm 27.9 SE 15 17 1011.2 F 0.0 Fine Partly cloudy 30 1 1.2 9 SE
30/02:30pm 27.9 SE 16 18 1011.1 - 0.0 - - - - - - -
30/02:00pm 27.8 SE 16 18 1011.4 - 0.0 - - - - - - -
30/01:30pm 27.9 SSE 16 17 1011.8 - 0.0 - - - - - - -
30/01:00pm 28.5 SE 13 16 1012.1 - 0.0 - - - - - - -
30/12:30pm 28.7 SE 12 14 1012.7 - 0.0 - - - - - - -
30/12:00pm 28.2 ESE 13 15 1013.2 S 0.0 Fine Mostly cloudy 40 <0.5 0.7 8 E
30/11:30am 27.3 SE 11 13 1013.7 - 0.0 - - - - - - -
30/11:00am 28.9 SE 9 11 1013.9 - 0.0 - - - - - - -
30/10:30am 28.3 SE 9 11 1014.2 - 0.0 - - - - - - -
30/10:00am 27.8 E 9 11 1014.3 - 0.0 - - - - - - -
30/09:30am 27.3 E 9 11 1014.3 - 0.0 - - - - - - -
30/09:00am 27.6 E 11 13 1014.5 F 0.0 Fine Partly cloudy 40 1 0.5 7 E
30/08:30am 26.9 E 12 14 1014.3 - 0.0 - - - - - - -
30/08:00am 26.8 E 11 13 1014.2 - 0.0 - - - - - - -
30/07:30am 26.3 E 11 14 1013.8 - 0.0 - - - - - - -
30/07:00am 25.3 E 11 12 1013.8 - 0.0 - - - - - - -
30/06:30am 25.3 E 12 15 1013.4 - 0.0 - - - - - - -
30/06:00am 24.6 E 13 14 1013.1 R 0.0 Fine Partly cloudy 40 1 0.5 7 E
30/05:30am 24.7 E 14 16 1012.8 - 0.0 - - - - - - -
30/05:00am 24.8 ENE 14 16 1012.5 - 0.0 - - - - - - -
30/04:30am 24.6 ENE 14 16 1012.4 - 0.0 - - - - - - -
30/04:00am 24.8 E 12 15 1012.0 - 0.0 - - - - - - -
30/03:30am 24.6 E 13 15 1011.9 - 0.0 - - - - - - -
30/03:00am 24.7 E 15 17 1011.6 - 0.0 - - - - - - -
30/02:30am 24.7 E 13 15 1011.6 - 0.0 - - - - - - -
30/02:00am 24.8 E 11 15 1011.8 - 0.0 - - - - - - -
30/01:30am 24.7 ESE 11 13 1012.2 - 0.0 - - - - - - -
30/01:00am 24.7 ESE 10 13 1012.5 - 0.0 - - - - - - -
30/12:30am 24.6 E 10 11 1012.5 - 0.0 - - - - - - -
30/12:00am 24.7 E 11 12 1012.8 - 0.0 - - - - - - -
 
Date/Time
EST
Temp

°C
Wind Pressure Rain
since 9am
mm
Weather Cloud Vis
km
Sea
Height
m
Swell
Dir
 
Speed
knots
Gust
knots
hPa Trend Height
m
Period
s
Dir
29/11:30pm 24.7 E 12 14 1013.1 - 0.0 - - - - - - -
29/11:00pm 24.8 E 12 14 1013.7 - 0.0 - - - - - - -
29/10:30pm 24.9 E 12 14 1014.2 - 0.0 - - - - - - -
29/10:00pm 25.1 E 13 15 1014.2 - 0.0 - - - - - - -
29/09:30pm 25.0 E 13 15 1014.4 - 0.0 - - - - - - -
29/09:00pm 25.0 E 13 16 1014.3 F 0.0 Fine Mostly clear 30 <0.5 - - -
29/08:30pm 25.2 ESE 14 16 1014.1 - 0.0 - - - - - - -
29/08:00pm 25.1 ESE 14 16 1013.9 - 0.0 - - - - - - -
29/07:30pm 25.1 ESE 13 15 1013.7 - 0.0 - - - - - - -
29/07:00pm 25.1 ESE 10 12 1013.5 - 0.0 - - - - - - -
29/06:30pm 25.4 ESE 11 13 1013.2 - 0.0 - - - - - - -
29/06:00pm 25.3 ESE 11 13 1013.0 R 0.0 Fine Partly cloudy 30 <0.5 0.5 5 E
29/05:30pm 25.6 ESE 10 12 1012.7 - 0.0 - - - - - - -
29/05:00pm 26.2 SE 10 12 1012.3 - 0.0 - - - - - - -
29/04:30pm 26.8 ESE 9 11 1011.9 - 0.0 - - - - - - -
29/04:00pm 26.2 ESE 9 11 1011.8 - 0.0 - - - - - - -
29/03:30pm 27.5 SE 7 9 1011.5 - 0.0 - - - - - - -
29/03:00pm 28.0 SE 8 9 1011.6 F 0.0 Fine Mostly clear 40 <0.5 0.5 9 E
29/02:30pm 28.3 SE 9 11 1011.8 - 0.0 - - - - - - -
29/02:00pm 28.1 ESE 9 12 1012.0 - 0.0 - - - - - - -
29/01:30pm 28.4 SE 8 10 1012.4 - 0.0 - - - - - - -
29/01:00pm 28.6 ESE 8 10 1012.7 - 0.0 - - - - - - -
29/12:30pm 28.6 ESE 8 10 1013.1 - 0.0 - - - - - - -
29/12:00pm 27.9 ESE 8 11 1013.6 R 0.0 Fine Mostly clear 40 <0.5 0.4 9 E
29/11:30am 28.3 ESE 10 11 1014.0 - 0.0 - - - - - - -
29/11:00am 27.8 SE 8 10 1014.3 - 0.0 - - - - - - -
29/10:30am 27.5 ESE 10 12 1014.1 - 0.0 - - - - - - -
29/10:00am 27.4 ESE 9 11 1014.5 - 0.0 - - - - - - -
29/09:30am 27.2 ESE 10 12 1014.4 - 0.0 - - - - - - -
29/09:00am 27.1 E 10 13 1014.6 F 0.0 Fine Partly cloudy 40 1 0.5 7 E
29/08:30am 26.0 ESE 9 11 1014.5 - 0.0 - - - - - - -
29/08:00am 26.3 E 10 13 1014.3 - 0.0 - - - - - - -
29/07:30am 25.7 E 12 15 1014.0 - 0.0 - - - - - - -
29/07:00am 25.5 E 10 11 1013.9 - 0.0 - - - - - - -
29/06:30am 24.9 E 9 11 1013.6 - 0.0 - - - - - - -
29/06:00am 24.1 E 10 13 1013.3 R 0.0 Fine Mostly clear 40 1 0.5 7 E
29/05:30am 24.1 E 12 13 1012.7 - 0.0 - - - - - - -
29/05:00am 24.2 E 9 10 1012.5 - 0.0 - - - - - - -
29/04:30am 24.3 E 9 11 1012.1 - 0.0 - - - - - - -
29/04:00am 24.2 E 9 11 1011.9 - 0.0 - - - - - - -

Other Formats:

Comma delimited format used in spreadsheet applications
http://www.bom.gov.au/fwo/IDQ60701/IDQ60701.94299.axf

JavaScript Object Notation format (JSON) in row-major order
http://www.bom.gov.au/fwo/IDQ60701/IDQ60701.94299.json